sensor_id;sensor_type;location;lat;lon;timestamp;temperature;humidity
12588;DHT22;6359;51.450;7.346;2023-04-15T00:00:17;3.20;99.90
12588;DHT22;6359;51.450;7.346;2023-04-15T00:02:45;3.10;99.90
12588;DHT22;6359;51.450;7.346;2023-04-15T00:05:12;3.10;99.90
12588;DHT22;6359;51.450;7.346;2023-04-15T00:07:39;3.30;99.90
12588;DHT22;6359;51.450;7.346;2023-04-15T00:10:07;3.10;99.90
12588;DHT22;6359;51.450;7.346;2023-04-15T00:12:36;3.00;99.90
12588;DHT22;6359;51.450;7.346;2023-04-15T00:15:03;3.00;99.90
12588;DHT22;6359;51.450;7.346;2023-04-15T00:17:31;3.10;99.90
12588;DHT22;6359;51.450;7.346;2023-04-15T00:19:57;3.00;99.90
12588;DHT22;6359;51.450;7.346;2023-04-15T00:22:25;3.00;99.90
12588;DHT22;6359;51.450;7.346;2023-04-15T00:24:53;3.00;99.90
12588;DHT22;6359;51.450;7.346;2023-04-15T00:27:19;3.30;99.90
12588;DHT22;6359;51.450;7.346;2023-04-15T00:29:48;3.00;99.90
12588;DHT22;6359;51.450;7.346;2023-04-15T00:34:42;3.00;99.90
12588;DHT22;6359;51.450;7.346;2023-04-15T00:37:09;3.10;99.90
12588;DHT22;6359;51.450;7.346;2023-04-15T00:39:36;3.00;99.90
12588;DHT22;6359;51.450;7.346;2023-04-15T00:42:03;2.90;99.90
12588;DHT22;6359;51.450;7.346;2023-04-15T00:44:31;3.80;99.90
12588;DHT22;6359;51.450;7.346;2023-04-15T00:46:59;3.00;99.90
12588;DHT22;6359;51.450;7.346;2023-04-15T00:49:27;2.90;99.90
12588;DHT22;6359;51.450;7.346;2023-04-15T00:51:54;2.90;99.90
12588;DHT22;6359;51.450;7.346;2023-04-15T00:54:21;2.80;99.90
12588;DHT22;6359;51.450;7.346;2023-04-15T00:56:48;2.80;99.90
12588;DHT22;6359;51.450;7.346;2023-04-15T00:59:16;2.80;99.90
12588;DHT22;6359;51.450;7.346;2023-04-15T01:01:44;2.80;99.90
12588;DHT22;6359;51.450;7.346;2023-04-15T01:04:14;2.60;99.90
12588;DHT22;6359;51.450;7.346;2023-04-15T01:06:41;2.60;99.90
12588;DHT22;6359;51.450;7.346;2023-04-15T01:09:08;2.60;99.90
12588;DHT22;6359;51.450;7.346;2023-04-15T01:11:36;2.60;99.90
12588;DHT22;6359;51.450;7.346;2023-04-15T01:14:03;2.50;99.90
12588;DHT22;6359;51.450;7.346;2023-04-15T01:16:30;2.30;99.90
12588;DHT22;6359;51.450;7.346;2023-04-15T01:18:57;2.30;99.90
12588;DHT22;6359;51.450;7.346;2023-04-15T01:21:26;2.20;99.90
12588;DHT22;6359;51.450;7.346;2023-04-15T01:23:54;2.50;99.90
12588;DHT22;6359;51.450;7.346;2023-04-15T01:26:24;2.40;99.90
12588;DHT22;6359;51.450;7.346;2023-04-15T01:33:46;1.80;99.90
12588;DHT22;6359;51.450;7.346;2023-04-15T01:36:13;2.20;99.90
12588;DHT22;6359;51.450;7.346;2023-04-15T01:43:36;2.10;99.90
12588;DHT22;6359;51.450;7.346;2023-04-15T01:48:30;2.00;99.90
12588;DHT22;6359;51.450;7.346;2023-04-15T01:50:58;2.20;99.90
12588;DHT22;6359;51.450;7.346;2023-04-15T01:58:20;2.20;99.90
12588;DHT22;6359;51.450;7.346;2023-04-15T02:00:48;2.20;99.90
12588;DHT22;6359;51.450;7.346;2023-04-15T02:13:05;2.10;99.90
12588;DHT22;6359;51.450;7.346;2023-04-15T02:15:32;2.10;99.90
12588;DHT22;6359;51.450;7.346;2023-04-15T02:18:00;2.10;99.90
12588;DHT22;6359;51.450;7.346;2023-04-15T02:20:27;2.00;99.90
12588;DHT22;6359;51.450;7.346;2023-04-15T02:22:55;2.00;99.90
12588;DHT22;6359;51.450;7.346;2023-04-15T02:25:22;2.00;99.90
12588;DHT22;6359;51.450;7.346;2023-04-15T02:27:49;2.10;99.90
12588;DHT22;6359;51.450;7.346;2023-04-15T02:30:16;2.20;99.90
12588;DHT22;6359;51.450;7.346;2023-04-15T02:32:43;2.10;99.90
12588;DHT22;6359;51.450;7.346;2023-04-15T02:35:11;2.00;99.90
12588;DHT22;6359;51.450;7.346;2023-04-15T02:37:38;2.10;99.90
12588;DHT22;6359;51.450;7.346;2023-04-15T02:40:08;2.10;99.90
12588;DHT22;6359;51.450;7.346;2023-04-15T02:42:37;2.10;99.90
12588;DHT22;6359;51.450;7.346;2023-04-15T02:45:05;2.00;99.90
12588;DHT22;6359;51.450;7.346;2023-04-15T02:47:32;1.90;99.90
12588;DHT22;6359;51.450;7.346;2023-04-15T02:50:02;1.70;99.90
12588;DHT22;6359;51.450;7.346;2023-04-15T02:52:30;1.60;99.90
12588;DHT22;6359;51.450;7.346;2023-04-15T02:54:57;1.60;99.90
12588;DHT22;6359;51.450;7.346;2023-04-15T02:57:27;1.50;99.90
12588;DHT22;6359;51.450;7.346;2023-04-15T02:59:54;1.50;99.90
12588;DHT22;6359;51.450;7.346;2023-04-15T03:02:21;1.60;99.90
12588;DHT22;6359;51.450;7.346;2023-04-15T03:04:48;1.60;99.90
12588;DHT22;6359;51.450;7.346;2023-04-15T03:07:16;1.50;99.90
12588;DHT22;6359;51.450;7.346;2023-04-15T03:09:45;1.40;99.90
12588;DHT22;6359;51.450;7.346;2023-04-15T03:12:12;1.40;99.90
12588;DHT22;6359;51.450;7.346;2023-04-15T03:14:39;1.50;99.90
12588;DHT22;6359;51.450;7.346;2023-04-15T03:17:06;1.40;99.90
12588;DHT22;6359;51.450;7.346;2023-04-15T03:19:33;1.30;99.90
12588;DHT22;6359;51.450;7.346;2023-04-15T03:22:00;1.40;99.90
12588;DHT22;6359;51.450;7.346;2023-04-15T03:24:27;1.50;99.90
12588;DHT22;6359;51.450;7.346;2023-04-15T03:26:56;1.50;99.90
12588;DHT22;6359;51.450;7.346;2023-04-15T03:29:23;1.40;99.90
12588;DHT22;6359;51.450;7.346;2023-04-15T03:31:51;1.40;99.90
12588;DHT22;6359;51.450;7.346;2023-04-15T03:34:18;1.30;99.90
12588;DHT22;6359;51.450;7.346;2023-04-15T03:36:45;1.30;99.90
12588;DHT22;6359;51.450;7.346;2023-04-15T03:39:12;1.40;99.90
12588;DHT22;6359;51.450;7.346;2023-04-15T03:41:39;1.30;99.90
12588;DHT22;6359;51.450;7.346;2023-04-15T03:44:07;1.20;99.90
12588;DHT22;6359;51.450;7.346;2023-04-15T03:46:34;1.20;99.90
12588;DHT22;6359;51.450;7.346;2023-04-15T03:49:01;1.20;99.90
12588;DHT22;6359;51.450;7.346;2023-04-15T03:51:28;1.20;99.90
12588;DHT22;6359;51.450;7.346;2023-04-15T03:53:55;1.20;99.90
12588;DHT22;6359;51.450;7.346;2023-04-15T03:56:23;1.10;99.90
12588;DHT22;6359;51.450;7.346;2023-04-15T03:58:50;1.10;99.90
12588;DHT22;6359;51.450;7.346;2023-04-15T04:01:19;1.20;99.90
12588;DHT22;6359;51.450;7.346;2023-04-15T04:03:46;1.00;99.90
12588;DHT22;6359;51.450;7.346;2023-04-15T04:06:13;1.00;99.90
12588;DHT22;6359;51.450;7.346;2023-04-15T04:08:41;1.00;99.90
12588;DHT22;6359;51.450;7.346;2023-04-15T04:11:08;0.90;99.90
12588;DHT22;6359;51.450;7.346;2023-04-15T04:13:35;0.90;99.90
12588;DHT22;6359;51.450;7.346;2023-04-15T04:16:02;0.90;99.90
12588;DHT22;6359;51.450;7.346;2023-04-15T04:18:31;1.00;99.90
12588;DHT22;6359;51.450;7.346;2023-04-15T04:20:58;1.00;99.90
12588;DHT22;6359;51.450;7.346;2023-04-15T04:23:25;1.10;99.90
12588;DHT22;6359;51.450;7.346;2023-04-15T04:25:52;1.10;99.90
12588;DHT22;6359;51.450;7.346;2023-04-15T04:28:19;1.10;99.90
12588;DHT22;6359;51.450;7.346;2023-04-15T04:30:46;1.10;99.90
12588;DHT22;6359;51.450;7.346;2023-04-15T04:33:13;1.30;99.90
12588;DHT22;6359;51.450;7.346;2023-04-15T04:35:42;1.30;99.90
12588;DHT22;6359;51.450;7.346;2023-04-15T04:38:09;1.30;99.90
12588;DHT22;6359;51.450;7.346;2023-04-15T04:40:36;1.30;99.90
12588;DHT22;6359;51.450;7.346;2023-04-15T04:43:03;1.40;99.90
12588;DHT22;6359;51.450;7.346;2023-04-15T04:45:30;1.40;99.90
12588;DHT22;6359;51.450;7.346;2023-04-15T04:47:57;1.50;99.90
12588;DHT22;6359;51.450;7.346;2023-04-15T04:50:24;1.40;99.90
12588;DHT22;6359;51.450;7.346;2023-04-15T04:52:53;1.40;99.90
12588;DHT22;6359;51.450;7.346;2023-04-15T04:55:20;1.40;99.90
12588;DHT22;6359;51.450;7.346;2023-04-15T04:57:47;1.30;99.90
12588;DHT22;6359;51.450;7.346;2023-04-15T05:00:14;1.30;99.90
12588;DHT22;6359;51.450;7.346;2023-04-15T05:02:41;1.30;99.90
12588;DHT22;6359;51.450;7.346;2023-04-15T05:05:09;1.40;99.90
12588;DHT22;6359;51.450;7.346;2023-04-15T05:07:36;1.50;99.90
12588;DHT22;6359;51.450;7.346;2023-04-15T05:10:06;1.50;99.90
12588;DHT22;6359;51.450;7.346;2023-04-15T05:12:34;1.60;99.90
12588;DHT22;6359;51.450;7.346;2023-04-15T05:15:02;1.70;99.90
12588;DHT22;6359;51.450;7.346;2023-04-15T05:17:28;1.70;99.90
12588;DHT22;6359;51.450;7.346;2023-04-15T05:19:57;1.80;99.90
12588;DHT22;6359;51.450;7.346;2023-04-15T05:22:24;1.80;99.90
12588;DHT22;6359;51.450;7.346;2023-04-15T05:24:51;1.90;99.90
12588;DHT22;6359;51.450;7.346;2023-04-15T05:27:19;2.00;99.90
12588;DHT22;6359;51.450;7.346;2023-04-15T05:29:47;2.00;99.90
12588;DHT22;6359;51.450;7.346;2023-04-15T05:32:14;2.10;99.90
12588;DHT22;6359;51.450;7.346;2023-04-15T05:34:41;2.20;99.90
12588;DHT22;6359;51.450;7.346;2023-04-15T05:37:08;2.20;99.90
12588;DHT22;6359;51.450;7.346;2023-04-15T05:39:35;2.20;99.90
12588;DHT22;6359;51.450;7.346;2023-04-15T05:42:02;2.30;99.90
12588;DHT22;6359;51.450;7.346;2023-04-15T05:44:32;2.50;99.90
12588;DHT22;6359;51.450;7.346;2023-04-15T05:46:59;2.60;99.90
12588;DHT22;6359;51.450;7.346;2023-04-15T05:49:26;2.60;99.90
12588;DHT22;6359;51.450;7.346;2023-04-15T05:51:53;2.70;99.90
12588;DHT22;6359;51.450;7.346;2023-04-15T05:54:20;2.70;99.90
12588;DHT22;6359;51.450;7.346;2023-04-15T05:56:48;3.00;99.90
12588;DHT22;6359;51.450;7.346;2023-04-15T05:59:14;3.20;99.90
12588;DHT22;6359;51.450;7.346;2023-04-15T06:01:43;3.40;99.90
12588;DHT22;6359;51.450;7.346;2023-04-15T06:04:10;3.60;99.90
12588;DHT22;6359;51.450;7.346;2023-04-15T06:06:37;3.90;99.90
12588;DHT22;6359;51.450;7.346;2023-04-15T06:09:05;4.00;99.90
12588;DHT22;6359;51.450;7.346;2023-04-15T06:11:32;4.20;99.90
12588;DHT22;6359;51.450;7.346;2023-04-15T06:13:59;4.20;99.90
12588;DHT22;6359;51.450;7.346;2023-04-15T06:16:26;4.30;99.90
12588;DHT22;6359;51.450;7.346;2023-04-15T06:18:54;4.50;99.90
12588;DHT22;6359;51.450;7.346;2023-04-15T06:21:21;4.50;99.90
12588;DHT22;6359;51.450;7.346;2023-04-15T06:23:48;4.60;99.90
12588;DHT22;6359;51.450;7.346;2023-04-15T06:26:15;4.60;99.90
12588;DHT22;6359;51.450;7.346;2023-04-15T06:28:42;4.80;99.90
12588;DHT22;6359;51.450;7.346;2023-04-15T06:31:09;5.00;99.90
12588;DHT22;6359;51.450;7.346;2023-04-15T06:33:36;5.30;99.90
12588;DHT22;6359;51.450;7.346;2023-04-15T06:36:05;5.70;99.90
12588;DHT22;6359;51.450;7.346;2023-04-15T06:38:32;6.10;99.90
12588;DHT22;6359;51.450;7.346;2023-04-15T06:41:00;6.50;99.90
12588;DHT22;6359;51.450;7.346;2023-04-15T06:43:26;6.90;99.90
12588;DHT22;6359;51.450;7.346;2023-04-15T06:45:54;7.20;99.90
12588;DHT22;6359;51.450;7.346;2023-04-15T06:48:21;7.30;99.90
12588;DHT22;6359;51.450;7.346;2023-04-15T06:50:48;7.70;99.90
12588;DHT22;6359;51.450;7.346;2023-04-15T06:53:16;8.20;99.90
12588;DHT22;6359;51.450;7.346;2023-04-15T06:55:44;8.30;99.90
12588;DHT22;6359;51.450;7.346;2023-04-15T06:58:11;8.50;99.90
12588;DHT22;6359;51.450;7.346;2023-04-15T07:00:38;8.60;99.90
12588;DHT22;6359;51.450;7.346;2023-04-15T07:03:05;8.60;99.90
12588;DHT22;6359;51.450;7.346;2023-04-15T07:05:34;8.60;99.90
12588;DHT22;6359;51.450;7.346;2023-04-15T07:08:01;8.50;99.90
12588;DHT22;6359;51.450;7.346;2023-04-15T07:10:30;8.50;99.90
12588;DHT22;6359;51.450;7.346;2023-04-15T07:12:57;8.80;99.90
12588;DHT22;6359;51.450;7.346;2023-04-15T07:15:24;8.70;99.90
12588;DHT22;6359;51.450;7.346;2023-04-15T07:17:51;8.80;99.90
12588;DHT22;6359;51.450;7.346;2023-04-15T07:20:18;8.80;99.90
12588;DHT22;6359;51.450;7.346;2023-04-15T07:22:45;8.90;99.90
12588;DHT22;6359;51.450;7.346;2023-04-15T07:25:12;8.90;99.90
12588;DHT22;6359;51.450;7.346;2023-04-15T07:27:40;9.20;99.90
12588;DHT22;6359;51.450;7.346;2023-04-15T07:30:09;8.80;99.90
12588;DHT22;6359;51.450;7.346;2023-04-15T07:32:37;8.50;99.90
12588;DHT22;6359;51.450;7.346;2023-04-15T07:35:04;8.10;99.90
12588;DHT22;6359;51.450;7.346;2023-04-15T07:37:32;8.40;99.90
12588;DHT22;6359;51.450;7.346;2023-04-15T07:39:59;8.80;99.90
12588;DHT22;6359;51.450;7.346;2023-04-15T07:42:26;9.40;99.90
12588;DHT22;6359;51.450;7.346;2023-04-15T07:44:55;9.40;99.90
12588;DHT22;6359;51.450;7.346;2023-04-15T07:47:22;9.30;99.90
12588;DHT22;6359;51.450;7.346;2023-04-15T07:49:50;9.50;99.90
12588;DHT22;6359;51.450;7.346;2023-04-15T07:52:17;9.70;99.90
12588;DHT22;6359;51.450;7.346;2023-04-15T07:54:44;10.00;99.90
12588;DHT22;6359;51.450;7.346;2023-04-15T07:57:11;10.30;99.90
12588;DHT22;6359;51.450;7.346;2023-04-15T07:59:38;10.40;99.90
12588;DHT22;6359;51.450;7.346;2023-04-15T08:02:06;10.50;99.90
12588;DHT22;6359;51.450;7.346;2023-04-15T08:04:34;10.80;99.90
12588;DHT22;6359;51.450;7.346;2023-04-15T08:07:01;10.70;99.90
12588;DHT22;6359;51.450;7.346;2023-04-15T08:09:28;10.50;99.90
12588;DHT22;6359;51.450;7.346;2023-04-15T08:11:55;10.90;99.90
12588;DHT22;6359;51.450;7.346;2023-04-15T08:14:23;11.30;99.90
12588;DHT22;6359;51.450;7.346;2023-04-15T08:16:50;11.80;99.90
12588;DHT22;6359;51.450;7.346;2023-04-15T08:19:18;11.70;99.90
12588;DHT22;6359;51.450;7.346;2023-04-15T08:21:45;12.20;99.90
12588;DHT22;6359;51.450;7.346;2023-04-15T08:24:13;12.70;99.90
12588;DHT22;6359;51.450;7.346;2023-04-15T08:26:40;12.60;99.90
12588;DHT22;6359;51.450;7.346;2023-04-15T08:29:07;12.40;99.90
12588;DHT22;6359;51.450;7.346;2023-04-15T08:31:34;12.50;99.90
12588;DHT22;6359;51.450;7.346;2023-04-15T08:34:01;12.20;99.90
12588;DHT22;6359;51.450;7.346;2023-04-15T08:36:30;12.50;99.90
12588;DHT22;6359;51.450;7.346;2023-04-15T08:38:58;12.70;99.90
12588;DHT22;6359;51.450;7.346;2023-04-15T08:41:30;13.10;99.90
12588;DHT22;6359;51.450;7.346;2023-04-15T08:44:02;13.20;99.90
12588;DHT22;6359;51.450;7.346;2023-04-15T08:46:30;13.70;99.90
12588;DHT22;6359;51.450;7.346;2023-04-15T08:48:59;14.40;99.90
12588;DHT22;6359;51.450;7.346;2023-04-15T08:51:31;13.90;99.90
12588;DHT22;6359;51.450;7.346;2023-04-15T08:53:58;13.60;99.90
12588;DHT22;6359;51.450;7.346;2023-04-15T08:56:27;13.50;99.90
12588;DHT22;6359;51.450;7.346;2023-04-15T08:58:57;13.40;99.90
12588;DHT22;6359;51.450;7.346;2023-04-15T09:01:25;13.20;99.90
12588;DHT22;6359;51.450;7.346;2023-04-15T09:03:52;12.60;99.90
12588;DHT22;6359;51.450;7.346;2023-04-15T09:06:20;12.40;99.90
12588;DHT22;6359;51.450;7.346;2023-04-15T09:08:48;12.10;99.90
12588;DHT22;6359;51.450;7.346;2023-04-15T09:11:16;11.80;99.90
12588;DHT22;6359;51.450;7.346;2023-04-15T09:13:44;11.80;99.90
12588;DHT22;6359;51.450;7.346;2023-04-15T09:16:11;11.70;99.90
12588;DHT22;6359;51.450;7.346;2023-04-15T09:18:38;11.80;99.90
12588;DHT22;6359;51.450;7.346;2023-04-15T09:21:06;11.60;99.90
12588;DHT22;6359;51.450;7.346;2023-04-15T09:23:36;11.40;99.90
12588;DHT22;6359;51.450;7.346;2023-04-15T09:26:05;11.40;99.90
12588;DHT22;6359;51.450;7.346;2023-04-15T09:28:32;11.40;99.90
12588;DHT22;6359;51.450;7.346;2023-04-15T09:31:01;11.40;99.90
12588;DHT22;6359;51.450;7.346;2023-04-15T09:33:28;11.10;99.90
12588;DHT22;6359;51.450;7.346;2023-04-15T09:35:57;10.90;99.90
12588;DHT22;6359;51.450;7.346;2023-04-15T09:38:24;10.90;99.90
12588;DHT22;6359;51.450;7.346;2023-04-15T09:40:51;10.80;99.90
12588;DHT22;6359;51.450;7.346;2023-04-15T09:43:20;10.80;99.90
12588;DHT22;6359;51.450;7.346;2023-04-15T09:45:48;11.10;99.90
12588;DHT22;6359;51.450;7.346;2023-04-15T09:48:17;11.30;99.90
12588;DHT22;6359;51.450;7.346;2023-04-15T09:50:46;11.60;99.90
12588;DHT22;6359;51.450;7.346;2023-04-15T09:53:17;11.90;99.90
12588;DHT22;6359;51.450;7.346;2023-04-15T09:55:48;11.70;99.90
12588;DHT22;6359;51.450;7.346;2023-04-15T09:58:20;11.40;99.90
12588;DHT22;6359;51.450;7.346;2023-04-15T10:00:49;11.30;99.90
12588;DHT22;6359;51.450;7.346;2023-04-15T10:03:18;11.20;99.90
12588;DHT22;6359;51.450;7.346;2023-04-15T10:05:47;11.30;99.90
12588;DHT22;6359;51.450;7.346;2023-04-15T10:08:17;11.30;99.90
12588;DHT22;6359;51.450;7.346;2023-04-15T10:10:45;11.30;99.90
12588;DHT22;6359;51.450;7.346;2023-04-15T10:13:13;11.10;99.90
12588;DHT22;6359;51.450;7.346;2023-04-15T10:15:44;11.00;99.90
12588;DHT22;6359;51.450;7.346;2023-04-15T10:18:14;11.00;99.90
12588;DHT22;6359;51.450;7.346;2023-04-15T10:20:42;10.80;99.90
12588;DHT22;6359;51.450;7.346;2023-04-15T10:23:10;10.70;99.90
12588;DHT22;6359;51.450;7.346;2023-04-15T10:25:38;10.70;99.90
12588;DHT22;6359;51.450;7.346;2023-04-15T10:28:06;10.50;99.90
12588;DHT22;6359;51.450;7.346;2023-04-15T10:30:34;10.40;99.90
12588;DHT22;6359;51.450;7.346;2023-04-15T10:33:04;10.30;99.90
12588;DHT22;6359;51.450;7.346;2023-04-15T10:35:32;10.40;99.90
12588;DHT22;6359;51.450;7.346;2023-04-15T10:37:59;10.30;99.90
12588;DHT22;6359;51.450;7.346;2023-04-15T10:40:28;10.40;99.90
12588;DHT22;6359;51.450;7.346;2023-04-15T10:42:57;10.40;99.90
12588;DHT22;6359;51.450;7.346;2023-04-15T10:45:25;10.30;99.90
12588;DHT22;6359;51.450;7.346;2023-04-15T10:47:55;10.10;99.90
12588;DHT22;6359;51.450;7.346;2023-04-15T10:50:26;10.00;99.90
12588;DHT22;6359;51.450;7.346;2023-04-15T10:52:55;9.90;99.90
12588;DHT22;6359;51.450;7.346;2023-04-15T10:55:23;10.00;99.90
12588;DHT22;6359;51.450;7.346;2023-04-15T10:57:52;9.90;99.90
12588;DHT22;6359;51.450;7.346;2023-04-15T11:00:24;9.90;99.90
12588;DHT22;6359;51.450;7.346;2023-04-15T11:02:53;10.00;99.90
12588;DHT22;6359;51.450;7.346;2023-04-15T11:05:22;10.00;99.90
12588;DHT22;6359;51.450;7.346;2023-04-15T11:07:53;10.00;99.90
12588;DHT22;6359;51.450;7.346;2023-04-15T11:10:51;10.00;99.90
12588;DHT22;6359;51.450;7.346;2023-04-15T11:13:26;10.00;99.90
12588;DHT22;6359;51.450;7.346;2023-04-15T11:15:57;10.00;99.90
12588;DHT22;6359;51.450;7.346;2023-04-15T11:18:27;10.00;99.90
12588;DHT22;6359;51.450;7.346;2023-04-15T11:20:56;9.90;99.90
12588;DHT22;6359;51.450;7.346;2023-04-15T11:23:30;10.00;99.90
12588;DHT22;6359;51.450;7.346;2023-04-15T11:25:59;10.20;99.90
12588;DHT22;6359;51.450;7.346;2023-04-15T11:28:28;10.30;99.90
12588;DHT22;6359;51.450;7.346;2023-04-15T11:30:56;10.40;99.90
12588;DHT22;6359;51.450;7.346;2023-04-15T11:33:24;10.10;99.90
12588;DHT22;6359;51.450;7.346;2023-04-15T11:35:52;10.00;99.90
12588;DHT22;6359;51.450;7.346;2023-04-15T11:38:20;9.90;99.90
12588;DHT22;6359;51.450;7.346;2023-04-15T11:40:50;9.80;99.90
12588;DHT22;6359;51.450;7.346;2023-04-15T11:43:19;9.80;99.90
12588;DHT22;6359;51.450;7.346;2023-04-15T11:45:49;9.80;99.90
12588;DHT22;6359;51.450;7.346;2023-04-15T11:48:17;9.70;99.90
12588;DHT22;6359;51.450;7.346;2023-04-15T11:50:45;9.70;99.90
12588;DHT22;6359;51.450;7.346;2023-04-15T11:53:13;9.70;99.90
12588;DHT22;6359;51.450;7.346;2023-04-15T11:55:41;9.80;99.90
12588;DHT22;6359;51.450;7.346;2023-04-15T11:58:13;9.80;99.90
12588;DHT22;6359;51.450;7.346;2023-04-15T12:00:45;9.80;99.90
12588;DHT22;6359;51.450;7.346;2023-04-15T12:03:16;9.90;99.90
12588;DHT22;6359;51.450;7.346;2023-04-15T12:06:03;9.90;99.90
12588;DHT22;6359;51.450;7.346;2023-04-15T12:08:58;9.80;99.90
12588;DHT22;6359;51.450;7.346;2023-04-15T12:11:34;10.10;99.90
12588;DHT22;6359;51.450;7.346;2023-04-15T12:14:07;10.20;99.90
12588;DHT22;6359;51.450;7.346;2023-04-15T12:16:39;9.90;99.90
12588;DHT22;6359;51.450;7.346;2023-04-15T12:19:09;9.90;99.90
12588;DHT22;6359;51.450;7.346;2023-04-15T12:21:37;9.80;99.90
12588;DHT22;6359;51.450;7.346;2023-04-15T12:24:06;9.80;99.90
12588;DHT22;6359;51.450;7.346;2023-04-15T12:26:35;9.80;99.90
12588;DHT22;6359;51.450;7.346;2023-04-15T12:29:04;9.90;99.90
12588;DHT22;6359;51.450;7.346;2023-04-15T12:31:34;10.00;99.90
12588;DHT22;6359;51.450;7.346;2023-04-15T12:34:02;9.90;99.90
12588;DHT22;6359;51.450;7.346;2023-04-15T12:36:30;9.90;99.90
12588;DHT22;6359;51.450;7.346;2023-04-15T12:39:01;9.90;99.90
12588;DHT22;6359;51.450;7.346;2023-04-15T12:41:29;10.00;99.90
12588;DHT22;6359;51.450;7.346;2023-04-15T12:43:55;9.90;99.90
12588;DHT22;6359;51.450;7.346;2023-04-15T12:46:22;9.80;99.90
12588;DHT22;6359;51.450;7.346;2023-04-15T12:48:51;9.70;99.90
12588;DHT22;6359;51.450;7.346;2023-04-15T12:51:18;9.70;99.90
12588;DHT22;6359;51.450;7.346;2023-04-15T12:53:46;9.70;99.90
12588;DHT22;6359;51.450;7.346;2023-04-15T12:56:14;9.70;99.90
12588;DHT22;6359;51.450;7.346;2023-04-15T12:58:41;9.70;99.90
12588;DHT22;6359;51.450;7.346;2023-04-15T13:01:08;9.70;99.90
12588;DHT22;6359;51.450;7.346;2023-04-15T13:03:36;9.80;99.90
12588;DHT22;6359;51.450;7.346;2023-04-15T13:06:04;9.80;99.90
12588;DHT22;6359;51.450;7.346;2023-04-15T13:08:31;9.90;99.90
12588;DHT22;6359;51.450;7.346;2023-04-15T13:10:58;9.80;99.90
12588;DHT22;6359;51.450;7.346;2023-04-15T13:13:25;9.80;99.90
12588;DHT22;6359;51.450;7.346;2023-04-15T13:15:52;9.80;99.90
12588;DHT22;6359;51.450;7.346;2023-04-15T13:18:19;9.70;99.90
12588;DHT22;6359;51.450;7.346;2023-04-15T13:20:48;9.90;99.90
12588;DHT22;6359;51.450;7.346;2023-04-15T13:23:16;9.90;99.90
12588;DHT22;6359;51.450;7.346;2023-04-15T13:25:43;9.90;99.90
12588;DHT22;6359;51.450;7.346;2023-04-15T13:28:10;10.00;99.90
12588;DHT22;6359;51.450;7.346;2023-04-15T13:30:38;10.10;99.90
12588;DHT22;6359;51.450;7.346;2023-04-15T13:33:05;10.20;99.90
12588;DHT22;6359;51.450;7.346;2023-04-15T13:35:32;10.10;99.90
12588;DHT22;6359;51.450;7.346;2023-04-15T13:37:59;10.20;99.90
12588;DHT22;6359;51.450;7.346;2023-04-15T13:40:28;10.40;99.90
12588;DHT22;6359;51.450;7.346;2023-04-15T13:42:55;10.50;99.90
12588;DHT22;6359;51.450;7.346;2023-04-15T13:45:22;10.40;99.90
12588;DHT22;6359;51.450;7.346;2023-04-15T13:47:49;10.40;99.90
12588;DHT22;6359;51.450;7.346;2023-04-15T13:50:16;10.20;99.90
12588;DHT22;6359;51.450;7.346;2023-04-15T13:52:43;10.20;99.90
12588;DHT22;6359;51.450;7.346;2023-04-15T13:55:10;10.00;99.90
12588;DHT22;6359;51.450;7.346;2023-04-15T13:57:38;9.80;99.90
12588;DHT22;6359;51.450;7.346;2023-04-15T14:00:06;9.70;99.90
12588;DHT22;6359;51.450;7.346;2023-04-15T14:02:33;9.70;99.90
12588;DHT22;6359;51.450;7.346;2023-04-15T14:05:00;9.70;99.90
12588;DHT22;6359;51.450;7.346;2023-04-15T14:07:28;9.70;99.90
12588;DHT22;6359;51.450;7.346;2023-04-15T14:09:55;9.80;99.90
12588;DHT22;6359;51.450;7.346;2023-04-15T14:12:22;9.70;99.90
12588;DHT22;6359;51.450;7.346;2023-04-15T14:14:51;9.60;99.90
12588;DHT22;6359;51.450;7.346;2023-04-15T14:17:18;9.60;99.90
12588;DHT22;6359;51.450;7.346;2023-04-15T14:19:45;9.50;99.90
12588;DHT22;6359;51.450;7.346;2023-04-15T14:22:11;9.70;99.90
12588;DHT22;6359;51.450;7.346;2023-04-15T14:24:39;9.50;99.90
12588;DHT22;6359;51.450;7.346;2023-04-15T14:27:06;9.60;99.90
12588;DHT22;6359;51.450;7.346;2023-04-15T14:29:33;9.50;99.90
12588;DHT22;6359;51.450;7.346;2023-04-15T14:32:01;9.60;99.90
12588;DHT22;6359;51.450;7.346;2023-04-15T14:34:28;9.60;99.90
12588;DHT22;6359;51.450;7.346;2023-04-15T14:36:55;9.60;99.90
12588;DHT22;6359;51.450;7.346;2023-04-15T14:39:22;9.40;99.90
12588;DHT22;6359;51.450;7.346;2023-04-15T14:41:49;9.50;99.90
12588;DHT22;6359;51.450;7.346;2023-04-15T14:44:16;9.50;99.90
12588;DHT22;6359;51.450;7.346;2023-04-15T14:46:43;9.40;99.90
12588;DHT22;6359;51.450;7.346;2023-04-15T14:49:11;9.40;99.90
12588;DHT22;6359;51.450;7.346;2023-04-15T14:51:39;9.40;99.90
12588;DHT22;6359;51.450;7.346;2023-04-15T14:54:06;9.50;99.90
12588;DHT22;6359;51.450;7.346;2023-04-15T14:56:32;9.50;99.90
12588;DHT22;6359;51.450;7.346;2023-04-15T14:59:00;9.40;99.90
12588;DHT22;6359;51.450;7.346;2023-04-15T15:01:27;9.30;99.90
12588;DHT22;6359;51.450;7.346;2023-04-15T15:03:54;9.30;99.90
12588;DHT22;6359;51.450;7.346;2023-04-15T15:06:23;9.20;99.90
12588;DHT22;6359;51.450;7.346;2023-04-15T15:08:50;9.20;99.90
12588;DHT22;6359;51.450;7.346;2023-04-15T15:11:17;9.20;99.90
12588;DHT22;6359;51.450;7.346;2023-04-15T15:13:44;9.20;99.90
12588;DHT22;6359;51.450;7.346;2023-04-15T15:16:11;9.30;99.90
12588;DHT22;6359;51.450;7.346;2023-04-15T15:18:38;9.20;99.90
12588;DHT22;6359;51.450;7.346;2023-04-15T15:21:05;9.20;99.90
12588;DHT22;6359;51.450;7.346;2023-04-15T15:23:34;9.10;99.90
12588;DHT22;6359;51.450;7.346;2023-04-15T15:26:01;9.10;99.90
12588;DHT22;6359;51.450;7.346;2023-04-15T15:28:28;9.10;99.90
12588;DHT22;6359;51.450;7.346;2023-04-15T15:30:55;9.00;99.90
12588;DHT22;6359;51.450;7.346;2023-04-15T15:33:22;9.00;99.90
12588;DHT22;6359;51.450;7.346;2023-04-15T15:35:49;8.90;99.90
12588;DHT22;6359;51.450;7.346;2023-04-15T15:38:16;8.90;99.90
12588;DHT22;6359;51.450;7.346;2023-04-15T15:40:45;8.90;99.90
12588;DHT22;6359;51.450;7.346;2023-04-15T15:43:12;9.00;99.90
12588;DHT22;6359;51.450;7.346;2023-04-15T15:45:39;9.00;99.90
12588;DHT22;6359;51.450;7.346;2023-04-15T15:48:06;8.90;99.90
12588;DHT22;6359;51.450;7.346;2023-04-15T15:50:33;8.70;99.90
12588;DHT22;6359;51.450;7.346;2023-04-15T15:53:00;8.60;99.90
12588;DHT22;6359;51.450;7.346;2023-04-15T15:55:27;8.50;99.90
12588;DHT22;6359;51.450;7.346;2023-04-15T15:57:55;8.50;99.90
12588;DHT22;6359;51.450;7.346;2023-04-15T16:00:23;8.30;99.90
12588;DHT22;6359;51.450;7.346;2023-04-15T16:02:53;8.30;99.90
12588;DHT22;6359;51.450;7.346;2023-04-15T16:05:20;8.20;99.90
12588;DHT22;6359;51.450;7.346;2023-04-15T16:07:47;8.20;99.90
12588;DHT22;6359;51.450;7.346;2023-04-15T16:10:14;8.20;99.90
12588;DHT22;6359;51.450;7.346;2023-04-15T16:12:41;8.10;99.90
12588;DHT22;6359;51.450;7.346;2023-04-15T16:15:11;8.10;99.90
12588;DHT22;6359;51.450;7.346;2023-04-15T16:17:38;8.20;99.90
12588;DHT22;6359;51.450;7.346;2023-04-15T16:20:06;8.20;99.90
12588;DHT22;6359;51.450;7.346;2023-04-15T16:22:33;8.10;99.90
12588;DHT22;6359;51.450;7.346;2023-04-15T16:25:01;8.20;99.90
12588;DHT22;6359;51.450;7.346;2023-04-15T16:27:28;8.20;99.90
12588;DHT22;6359;51.450;7.346;2023-04-15T16:29:55;8.20;99.90